Time;durP1;ratioP1;P1;durP2;ratioP2;P2;SDS_P1;SDS_P2;PMS_P1;PMS_P2;Temp;Humidity;BMP_temperature;BMP_pressure;BME280_temperature;BME280_humidity;BME280_pressure;Samples;Min_cycle;Max_cycle;Signal;HPM_P1;HPM_P2
2022/12/02 00:02:27;;;;;;;22.40;11.70;;;;;;;-4.10;78.53;100011.41;102071;1292;61629;-24
2022/12/02 00:05:03;;;;;;;27.00;12.20;;;;;;;-4.02;78.64;100007.12;102034;1296;76660;-23
2022/12/02 00:07:32;;;;;;;24.70;11.60;;;;;;;-4.31;79.08;100007.80;102188;1295;76769;-24
2022/12/02 00:10:00;;;;;;;24.20;13.30;;;;;;;-4.57;80.02;100007.23;102226;1286;72936;-23
2022/12/02 00:12:29;;;;;;;15.80;9.70;;;;;;;-4.78;80.82;100009.00;102319;1299;62267;-23
2022/12/02 00:15:02;;;;;;;13.20;8.10;;;;;;;-4.99;81.96;100002.80;102207;1301;61496;-23
2022/12/02 00:17:30;;;;;;;22.90;11.00;;;;;;;-4.95;82.49;100000.59;102130;1299;76412;-23
2022/12/02 00:19:57;;;;;;;19.80;9.70;;;;;;;-5.06;82.51;100002.13;102327;1297;76814;-24
2022/12/02 00:22:25;;;;;;;14.40;6.00;;;;;;;-4.78;82.62;100002.05;102140;1297;73922;-23
2022/12/02 00:24:53;;;;;;;22.30;10.20;;;;;;;-3.91;80.37;100003.14;102285;1297;61256;-23
2022/12/02 00:27:20;;;;;;;21.00;10.30;;;;;;;-3.20;78.40;100007.52;102084;1300;62788;-23
2022/12/02 00:29:48;;;;;;;21.70;11.30;;;;;;;-3.15;76.72;100011.20;102306;1298;76338;-25
2022/12/02 00:32:15;;;;;;;18.00;10.40;;;;;;;-3.45;76.06;100009.59;102305;1291;76782;-25
2022/12/02 00:34:43;;;;;;;17.20;9.60;;;;;;;-4.10;77.71;100007.51;102281;1294;75251;-25
2022/12/02 00:37:11;;;;;;;17.20;9.80;;;;;;;-4.34;78.82;100014.25;102347;1291;61141;-24
2022/12/02 00:39:38;;;;;;;19.80;9.80;;;;;;;-4.47;80.05;100015.00;102340;1297;62615;-24
2022/12/02 00:42:05;;;;;;;20.20;10.70;;;;;;;-4.47;79.83;100015.66;102178;1300;76346;-25
2022/12/02 00:47:19;;;;;;;18.60;7.70;;;;;;;-4.97;81.81;100018.88;102296;1299;75189;-23
2022/12/02 00:49:47;;;;;;;13.50;6.20;;;;;;;-4.62;82.09;100015.21;102252;1301;63439;-22
2022/12/02 00:52:16;;;;;;;14.20;6.30;;;;;;;-3.70;79.87;100014.38;102137;1298;61566;-22
2022/12/02 00:54:44;;;;;;;16.60;8.70;;;;;;;-3.16;77.74;100017.31;102074;1301;76415;-23
2022/12/02 00:57:14;;;;;;;16.00;9.10;;;;;;;-3.07;77.18;100018.24;102003;1302;76702;-23
2022/12/02 00:59:42;;;;;;;18.00;7.60;;;;;;;-3.27;76.48;100014.19;102103;1298;74188;-23
2022/12/02 01:02:10;;;;;;;16.80;8.30;;;;;;;-3.55;76.41;100015.45;102091;1299;61165;-22
2022/12/02 01:04:37;;;;;;;20.70;9.80;;;;;;;-3.76;77.12;100011.36;102303;1300;61166;-24
2022/12/02 01:07:05;;;;;;;24.10;10.70;;;;;;;-4.00;77.73;100005.92;102324;1296;76400;-24
2022/12/02 01:09:32;;;;;;;23.60;11.40;;;;;;;-4.19;78.42;100007.23;102309;1301;77020;-23
2022/12/02 01:12:00;;;;;;;15.40;7.50;;;;;;;-4.33;78.93;100007.80;102317;1299;75056;-24
2022/12/02 01:14:27;;;;;;;18.90;7.50;;;;;;;-4.53;79.59;100006.38;102182;1301;62210;-23
2022/12/02 01:16:55;;;;;;;15.00;7.30;;;;;;;-4.39;80.17;100003.27;102184;1299;61335;-23
2022/12/02 01:19:22;;;;;;;18.60;9.50;;;;;;;-3.69;78.90;100004.69;102173;1301;76469;-24
2022/12/02 01:21:50;;;;;;;22.20;10.90;;;;;;;-3.11;77.08;100006.56;102202;1300;76647;-23
2022/12/02 01:24:17;;;;;;;16.00;7.90;;;;;;;-2.96;76.51;100003.69;102211;1292;74006;-24
2022/12/02 01:26:45;;;;;;;16.80;9.00;;;;;;;-3.08;76.15;99997.88;102170;1301;61882;-24
2022/12/02 01:29:12;;;;;;;18.80;8.60;;;;;;;-3.29;76.22;99995.19;102281;1298;61899;-24
2022/12/02 01:31:40;;;;;;;12.20;6.10;;;;;;;-3.59;76.75;99991.55;102338;1292;76264;-24
2022/12/02 01:34:08;;;;;;;13.40;7.20;;;;;;;-3.87;77.33;99989.37;102146;1301;75838;-23
2022/12/02 01:36:35;;;;;;;12.80;6.60;;;;;;;-4.04;78.04;99986.79;102023;1297;75192;-23
2022/12/02 01:39:03;;;;;;;7.00;4.40;;;;;;;-4.23;78.53;99983.68;102307;1299;62757;-24
2022/12/02 01:41:30;;;;;;;8.20;4.70;;;;;;;-4.29;79.12;99981.84;102269;1298;62558;-24
2022/12/02 01:43:58;;;;;;;10.30;4.90;;;;;;;-3.71;79.05;99981.63;102115;1294;76161;-23
2022/12/02 01:46:25;;;;;;;13.40;5.80;;;;;;;-3.09;77.16;99984.11;102133;1298;76918;-23
2022/12/02 01:48:53;;;;;;;11.00;5.50;;;;;;;-2.96;76.32;99982.96;102190;1294;75016;-23
2022/12/02 01:51:20;;;;;;;14.40;6.90;;;;;;;-3.16;75.91;99982.48;102189;1301;61934;-23
2022/12/02 01:53:48;;;;;;;13.00;7.10;;;;;;;-3.37;76.11;99984.23;102221;1297;62595;-24
2022/12/02 01:56:15;;;;;;;14.50;6.90;;;;;;;-3.56;76.95;99982.69;102196;1294;76370;-24
2022/12/02 01:58:43;;;;;;;12.60;7.70;;;;;;;-3.74;77.71;99980.47;102021;1296;75529;-24
2022/12/02 02:01:46;;;;;;;12.20;6.10;;;;;;;-3.97;78.25;99973.66;102294;1299;75204;-23
2022/12/02 02:04:17;;;;;;;19.00;9.50;;;;;;;-4.23;79.31;99975.88;101793;1305;62763;-23
2022/12/02 02:06:46;;;;;;;12.50;6.50;;;;;;;-4.01;80.08;99978.10;101796;1308;61161;-24
2022/12/02 02:09:14;;;;;;;14.90;7.70;;;;;;;-3.16;78.75;99977.06;101613;1285;76407;-24
2022/12/02 02:11:41;;;;;;;17.80;8.70;;;;;;;-2.83;76.78;99976.70;101777;1306;76695;-23
2022/12/02 02:14:10;;;;;;;11.90;6.00;;;;;;;-3.15;75.95;99971.78;101462;1301;75081;-23
2022/12/02 02:16:38;;;;;;;1.70;1.60;;;;;;;-3.21;76.43;99975.73;101633;1307;61187;-24
2022/12/02 02:19:08;;;;;;;12.10;7.00;;;;;;;-3.43;76.63;99972.21;101815;1305;62881;-24
2022/12/02 02:21:41;;;;;;;11.20;6.90;;;;;;;-3.65;77.20;99966.31;101674;1307;76473;-24
2022/12/02 02:24:09;;;;;;;16.40;6.40;;;;;;;-3.77;77.71;99965.21;101680;1300;75284;-24
2022/12/02 02:26:36;;;;;;;13.80;7.90;;;;;;;-3.98;78.49;99961.63;101783;1299;75290;-24
2022/12/02 02:29:04;;;;;;;7.10;3.80;;;;;;;-4.12;79.23;99961.40;101861;1292;63068;-24
2022/12/02 02:31:32;;;;;;;10.30;5.80;;;;;;;-4.22;79.47;99960.44;101677;1293;63038;-23
2022/12/02 02:34:00;;;;;;;11.40;4.80;;;;;;;-3.85;79.47;99962.90;101668;1300;76228;-23
2022/12/02 02:36:27;;;;;;;15.00;8.40;;;;;;;-3.15;77.77;99961.59;101799;1308;76680;-24
2022/12/02 02:38:55;;;;;;;9.20;5.10;;;;;;;-2.90;76.10;99959.79;101790;1299;74957;-23
2022/12/02 02:41:22;;;;;;;12.40;5.70;;;;;;;-2.95;75.60;99957.13;101956;1296;61199;-24
2022/12/02 02:43:53;;;;;;;12.30;7.00;;;;;;;-3.12;75.89;99961.21;102354;1301;62865;-24
2022/12/02 02:46:20;;;;;;;6.20;4.00;;;;;;;-3.41;76.35;99955.55;102009;1299;74451;-24
2022/12/02 02:48:48;;;;;;;14.00;7.50;;;;;;;-3.59;76.77;99957.77;102106;1295;75539;-23
2022/12/02 02:51:16;;;;;;;18.00;6.00;;;;;;;-3.90;77.74;99954.95;102356;1292;75162;-24
2022/12/02 02:53:43;;;;;;;11.10;5.10;;;;;;;-3.98;78.29;99956.22;102304;1292;63706;-23
2022/12/02 02:56:11;;;;;;;13.40;7.20;;;;;;;-3.38;77.79;99954.69;102231;1290;61577;-24
2022/12/02 02:58:43;;;;;;;19.00;9.10;;;;;;;-3.08;75.97;99956.59;102214;1298;75311;-23
2022/12/02 03:01:13;;;;;;;18.10;9.50;;;;;;;-3.29;76.42;99958.67;102356;1297;75710;-23
2022/12/02 03:03:49;;;;;;;17.30;7.90;;;;;;;-3.37;76.83;99960.61;102127;1291;74159;-24
2022/12/02 03:06:19;;;;;;;14.80;7.00;;;;;;;-3.50;77.07;99967.35;102104;1295;61134;-23
2022/12/02 03:08:46;;;;;;;18.70;9.40;;;;;;;-3.62;77.61;99963.55;102128;1298;61748;-24
2022/12/02 03:11:14;;;;;;;16.90;9.80;;;;;;;-4.00;78.90;99961.98;102120;1294;76055;-24
2022/12/02 03:13:42;;;;;;;11.10;7.10;;;;;;;-4.32;80.52;99960.48;102215;1292;75736;-24
2022/12/02 03:16:14;;;;;;;22.20;11.50;;;;;;;-3.79;80.02;99964.87;101991;1301;75147;-24
2022/12/02 03:18:42;;;;;;;23.60;9.50;;;;;;;-3.24;77.52;99965.08;101993;1302;61169;-24
2022/12/02 03:21:10;;;;;;;20.40;10.60;;;;;;;-3.14;76.66;99960.05;102174;1298;61833;-25
2022/12/02 03:23:37;;;;;;;14.10;6.30;;;;;;;-3.24;76.52;99958.11;102359;1293;76153;-24
2022/12/02 03:26:05;;;;;;;14.60;6.60;;;;;;;-3.71;77.92;99958.88;102205;1301;76848;-24
2022/12/02 03:28:32;;;;;;;16.30;8.00;;;;;;;-3.57;78.25;99963.35;102315;1300;75188;-24
2022/12/02 03:31:00;;;;;;;12.70;6.50;;;;;;;-3.82;78.63;99959.30;102298;1296;62012;-24
2022/12/02 03:33:27;;;;;;;21.00;10.00;;;;;;;-4.11;79.28;99953.91;101461;1301;1165579;-24
2022/12/02 03:35:55;;;;;;;17.30;8.20;;;;;;;-4.03;79.48;99957.10;102280;1294;75124;-24
2022/12/02 03:38:23;;;;;;;12.00;6.90;;;;;;;-4.08;79.70;99958.99;102118;1293;75794;-24
2022/12/02 03:40:51;;;;;;;10.40;5.60;;;;;;;-4.22;80.08;99956.71;102009;1294;74231;-24
2022/12/02 03:43:18;;;;;;;20.70;9.40;;;;;;;-3.53;79.61;99957.86;102045;1301;61143;-24
2022/12/02 03:45:46;;;;;;;46.40;15.50;;;;;;;-2.79;76.84;99953.54;102072;1294;61730;-25
2022/12/02 03:48:16;;;;;;;30.80;14.00;;;;;;;-2.61;75.20;99953.31;102111;1301;76341;-25
2022/12/02 03:50:43;;;;;;;318.60;94.00;;;;;;;-2.96;75.24;99951.02;102056;1298;75778;-24
2022/12/02 03:53:11;;;;;;;74.20;28.10;;;;;;;-3.37;76.57;99953.48;102313;1294;74168;-24
2022/12/02 03:55:38;;;;;;;50.80;17.90;;;;;;;-3.53;77.45;99954.48;102197;1291;61171;-24
2022/12/02 03:58:08;;;;;;;26.90;12.70;;;;;;;-3.48;77.64;99958.00;102207;1298;61696;-24
2022/12/02 04:00:38;;;;;;;21.80;11.40;;;;;;;-3.84;78.35;99957.96;102260;1297;76303;-24
2022/12/02 04:03:06;;;;;;;17.60;9.90;;;;;;;-3.93;78.99;99957.36;102228;1293;76735;-24
2022/12/02 04:05:33;;;;;;;25.40;10.50;;;;;;;-3.95;79.25;99958.55;102247;1299;75141;-24
2022/12/02 04:08:01;;;;;;;9.80;6.00;;;;;;;-4.14;79.95;99956.65;102296;1293;64404;-24
2022/12/02 04:10:29;;;;;;;10.90;7.00;;;;;;;-3.72;79.05;99953.63;102330;1291;61096;-24
2022/12/02 04:12:56;;;;;;;15.30;8.80;;;;;;;-3.07;76.92;99958.44;102297;1294;76525;-24
2022/12/02 04:15:23;;;;;;;14.50;6.70;;;;;;;-2.65;75.67;99954.05;102182;1294;76759;-24
2022/12/02 04:17:51;;;;;;;22.30;9.70;;;;;;;-2.90;75.16;99949.58;102299;1298;74241;-24
2022/12/02 04:20:18;;;;;;;25.60;13.00;;;;;;;-3.06;75.80;99947.06;102310;1298;61789;-24
2022/12/02 04:22:46;;;;;;;29.10;12.00;;;;;;;-3.38;76.90;99951.80;102318;1299;62760;-24
2022/12/02 04:25:13;;;;;;;15.40;6.40;;;;;;;-3.46;77.07;99951.54;102338;1290;76434;-24
2022/12/02 04:27:41;;;;;;;15.80;8.50;;;;;;;-3.66;77.59;99951.89;102330;1291;76437;-24
2022/12/02 04:30:09;;;;;;;18.80;10.80;;;;;;;-3.68;77.95;99956.14;102261;1301;74947;-24
2022/12/02 04:32:37;;;;;;;29.50;13.60;;;;;;;-3.95;78.84;99953.64;102222;1298;61840;-24
2022/12/02 04:35:05;;;;;;;13.90;6.40;;;;;;;-3.90;79.55;99954.27;102337;1298;61784;-24
2022/12/02 04:37:32;;;;;;;18.70;9.20;;;;;;;-3.31;78.70;99956.65;102103;1296;74453;-24
2022/12/02 04:40:00;;;;;;;29.80;13.30;;;;;;;-2.61;76.07;99954.52;102282;1293;76969;-24
2022/12/02 04:42:27;;;;;;;19.00;7.60;;;;;;;-2.29;74.93;99956.81;102305;1300;75288;-24
2022/12/02 04:44:55;;;;;;;24.80;10.60;;;;;;;-2.44;74.13;99954.63;102212;1301;61184;-24
2022/12/02 04:47:22;;;;;;;15.10;7.60;;;;;;;-2.78;74.33;99954.71;102320;1297;61554;-24
2022/12/02 04:49:50;;;;;;;17.90;8.00;;;;;;;-2.90;74.69;99949.24;102236;1294;76332;-24
2022/12/02 04:52:17;;;;;;;12.30;7.20;;;;;;;-3.05;75.08;99951.30;102302;1291;76827;-24
2022/12/02 04:54:45;;;;;;;16.30;7.10;;;;;;;-3.22;75.63;99952.33;102272;1292;73098;-24
2022/12/02 04:57:12;;;;;;;15.60;8.40;;;;;;;-3.43;76.10;99950.99;102060;1301;62005;-24
2022/12/02 04:59:40;;;;;;;11.90;7.10;;;;;;;-3.57;76.62;99953.33;102300;1299;61808;-24
2022/12/02 05:02:08;;;;;;;10.50;4.80;;;;;;;-3.44;77.26;99950.83;102063;1302;75283;-24
2022/12/02 05:04:36;;;;;;;14.80;7.90;;;;;;;-2.55;76.11;99950.02;102177;1297;75542;-24
2022/12/02 05:07:06;;;;;;;20.00;8.10;;;;;;;-2.21;73.75;99951.24;102302;1291;74935;-24
2022/12/02 05:09:34;;;;;;;15.40;8.10;;;;;;;-2.24;73.10;99955.71;102270;1290;61158;-25
2022/12/02 05:12:01;;;;;;;14.10;7.20;;;;;;;-2.72;73.56;99953.79;102224;1292;61627;-24
2022/12/02 05:14:29;;;;;;;17.70;9.50;;;;;;;-2.96;74.61;99953.56;102300;1294;76037;-24
2022/12/02 05:16:56;;;;;;;19.70;12.10;;;;;;;-3.11;75.79;99954.77;102277;1294;76413;-24
2022/12/02 05:19:24;;;;;;;15.50;7.70;;;;;;;-3.19;76.10;99949.57;102039;1298;73983;-24
2022/12/02 05:21:51;;;;;;;13.70;5.50;;;;;;;-3.36;76.03;99947.87;102326;1298;61152;-24
2022/12/02 05:24:19;;;;;;;19.40;10.30;;;;;;;-3.49;76.31;99944.26;102311;1298;61788;-24
2022/12/02 05:26:46;;;;;;;11.40;4.70;;;;;;;-3.67;77.40;99942.56;102319;1298;76140;-24
2022/12/02 05:29:13;;;;;;;12.00;5.70;;;;;;;-3.24;77.56;99945.70;102324;1298;76468;-24
2022/12/02 05:31:41;;;;;;;15.20;8.30;;;;;;;-2.51;75.44;99947.92;102328;1299;75070;-24
2022/12/02 05:34:09;;;;;;;23.70;10.60;;;;;;;-2.30;74.35;99954.61;102362;1299;61138;-24
2022/12/02 05:36:37;;;;;;;18.20;9.10;;;;;;;-2.34;74.51;99955.52;102303;1299;62808;-25
2022/12/02 05:39:05;;;;;;;17.30;7.90;;;;;;;-2.54;74.38;99955.94;102275;1298;76363;-24
2022/12/02 05:41:32;;;;;;;19.70;9.20;;;;;;;-2.82;74.72;99954.09;102223;1301;76540;-24
2022/12/02 05:44:24;;;;;;;17.80;8.50;;;;;;;-3.02;75.42;99957.36;102302;1299;74943;-24
2022/12/02 05:47:00;;;;;;;8.80;5.50;;;;;;;-3.27;75.92;99964.60;102250;1299;61176;-24
2022/12/02 05:49:29;;;;;;;19.90;9.80;;;;;;;-3.45;76.27;99966.13;102128;1298;62880;-24
2022/12/02 05:51:58;;;;;;;23.70;12.40;;;;;;;-3.63;77.55;99964.77;102239;1294;75436;-24
2022/12/02 05:54:26;;;;;;;10.70;5.20;;;;;;;-3.76;78.84;99968.27;102149;1285;75777;-24
2022/12/02 05:56:57;;;;;;;15.10;7.50;;;;;;;-3.18;78.52;99968.56;102114;1299;74645;-25
2022/12/02 05:59:24;;;;;;;19.40;9.10;;;;;;;-2.37;76.73;99971.52;101954;1304;61261;-25
2022/12/02 06:01:53;;;;;;;18.00;9.10;;;;;;;-2.25;74.52;99972.41;102087;1290;61791;-27
2022/12/02 06:04:30;;;;;;;19.70;9.40;;;;;;;-2.27;74.07;99971.23;102225;1293;76516;-26
2022/12/02 06:07:01;;;;;;;22.90;9.70;;;;;;;-2.51;74.44;99974.27;102078;1294;76087;-25
2022/12/02 06:09:30;;;;;;;25.60;12.90;;;;;;;-3.09;75.48;99976.80;101933;1298;72947;-22
2022/12/02 06:11:58;;;;;;;19.00;9.80;;;;;;;-3.32;76.81;99974.49;102059;1296;62036;-23
2022/12/02 06:14:30;;;;;;;30.50;14.80;;;;;;;-3.37;77.42;99973.52;102143;1298;62895;-22
2022/12/02 06:17:02;;;;;;;18.60;9.80;;;;;;;-3.57;77.99;99977.60;102119;1301;76418;-23
2022/12/02 06:19:42;;;;;;;18.90;9.80;;;;;;;-3.82;78.79;99977.13;102083;1298;75515;-22
2022/12/02 06:22:19;;;;;;;10.20;6.10;;;;;;;-3.77;79.23;99981.16;102187;1301;74998;-23
2022/12/02 06:24:46;;;;;;;37.50;16.70;;;;;;;-3.49;78.86;99983.82;102223;1298;61097;-23
2022/12/02 06:27:14;;;;;;;28.10;12.90;;;;;;;-2.92;76.94;99981.23;102314;1294;62553;-23
2022/12/02 06:30:08;;;;;;;26.70;13.60;;;;;;;-2.76;75.70;99983.42;102399;1297;76125;-23
2022/12/02 06:32:37;;;;;;;23.70;11.50;;;;;;;-2.63;75.42;99983.79;102233;1301;75680;-23
2022/12/02 06:35:35;;;;;;;25.50;10.80;;;;;;;-2.84;75.58;99979.27;102059;1298;74394;-23
2022/12/02 06:38:22;;;;;;;15.90;7.20;;;;;;;-3.03;75.96;99985.77;102063;1298;61159;-23
2022/12/02 06:40:50;;;;;;;19.30;10.50;;;;;;;-3.18;76.39;99981.67;102177;1294;61755;-23
2022/12/02 06:43:24;;;;;;;20.00;10.60;;;;;;;-3.24;76.79;99981.89;102307;1294;75206;-24
2022/12/02 06:45:51;;;;;;;19.80;8.60;;;;;;;-3.52;77.61;99984.35;102097;1298;76890;-23
2022/12/02 06:48:26;;;;;;;23.10;13.00;;;;;;;-3.56;78.00;99981.85;102090;1298;74311;-23
2022/12/02 06:50:55;;;;;;;12.80;6.00;;;;;;;-3.54;78.62;99987.60;102104;1296;63446;-23
2022/12/02 06:53:35;;;;;;;20.90;9.60;;;;;;;-2.91;77.17;99984.60;102253;1301;62644;-24
2022/12/02 06:56:15;;;;;;;17.60;9.80;;;;;;;-2.06;75.02;99988.63;102132;1293;75303;-24
2022/12/02 06:58:44;;;;;;;14.10;6.80;;;;;;;-1.82;72.95;99991.52;102070;1301;76760;-24
2022/12/02 07:01:22;;;;;;;12.30;6.90;;;;;;;-1.98;72.62;99992.79;102189;1294;74156;-24
2022/12/02 07:04:01;;;;;;;7.40;4.90;;;;;;;-2.18;72.90;99988.30;102343;1301;61107;-25
2022/12/02 07:06:29;;;;;;;18.20;8.50;;;;;;;-2.35;73.43;99989.03;102106;1296;62891;-25
2022/12/02 07:08:59;;;;;;;17.00;8.90;;;;;;;-2.55;74.00;99991.33;102195;1298;76519;-22
2022/12/02 07:11:50;;;;;;;16.90;8.70;;;;;;;-2.74;74.67;99996.66;102090;1295;76633;-24
2022/12/02 07:14:28;;;;;;;10.40;6.00;;;;;;;-2.85;75.62;99995.23;102136;1293;75234;-24
2022/12/02 07:17:02;;;;;;;10.50;6.60;;;;;;;-3.00;75.82;100000.16;102263;1301;61857;-25
2022/12/02 07:19:39;;;;;;;13.00;7.90;;;;;;;-2.92;75.93;100001.80;102092;1298;61455;-25
2022/12/02 07:22:31;;;;;;;14.60;7.70;;;;;;;-2.87;76.11;100002.41;102171;1298;76158;-24
2022/12/02 07:25:06;;;;;;;9.40;4.60;;;;;;;-2.74;75.72;100000.73;102110;1293;75729;-25
2022/12/02 07:27:36;;;;;;;16.90;8.30;;;;;;;-1.87;75.04;100004.00;102221;1292;75226;-24
2022/12/02 07:30:23;;;;;;;10.20;5.60;;;;;;;-1.00;72.75;100003.77;102077;1299;61861;-25
2022/12/02 07:32:51;;;;;;;18.70;7.30;;;;;;;-0.84;70.29;99999.20;102262;1294;63014;-24
2022/12/02 07:35:19;;;;;;;13.20;7.20;;;;;;;-1.05;69.38;100004.20;102282;1298;76422;-25
2022/12/02 07:37:47;;;;;;;13.60;6.80;;;;;;;-1.37;69.83;100002.55;102348;1300;76835;-24
2022/12/02 07:40:15;;;;;;;13.20;6.10;;;;;;;-1.55;71.05;100001.65;102300;1291;72951;-24
2022/12/02 07:42:43;;;;;;;14.60;7.20;;;;;;;-1.66;71.34;99998.42;102091;1297;62083;-24
2022/12/02 07:45:12;;;;;;;10.40;5.50;;;;;;;-1.85;71.86;100001.45;102380;1292;62887;-24
2022/12/02 07:47:40;;;;;;;22.10;10.80;;;;;;;-1.91;72.16;100001.34;102130;1296;76343;-24
2022/12/02 07:50:08;;;;;;;13.80;8.40;;;;;;;-2.03;72.83;100005.11;102294;1294;75566;-24
2022/12/02 07:52:36;;;;;;;17.90;8.70;;;;;;;-2.12;72.96;100006.26;102080;1301;75013;-24
2022/12/02 07:55:04;;;;;;;11.50;6.40;;;;;;;-2.19;73.36;100006.16;102143;1290;61493;-24
2022/12/02 07:57:33;;;;;;;6.80;4.30;;;;;;;-2.29;73.95;100010.89;102055;1290;62896;-24
2022/12/02 08:00:03;;;;;;;16.40;7.60;;;;;;;-1.91;73.67;100014.96;102320;1290;76092;-24
2022/12/02 08:02:38;;;;;;;8.90;5.00;;;;;;;-1.16;71.59;100010.71;102004;1296;74675;-24
2022/12/02 08:05:07;;;;;;;13.10;7.60;;;;;;;-0.80;70.27;100014.98;102154;1301;75159;-24
2022/12/02 08:07:34;;;;;;;12.90;7.20;;;;;;;-0.76;69.67;100016.95;102283;1301;61469;-24
2022/12/02 08:10:03;;;;;;;17.90;8.00;;;;;;;-0.94;69.40;100015.77;102244;1291;61413;-24
2022/12/02 08:12:31;;;;;;;16.70;9.00;;;;;;;-1.45;70.51;100019.89;102241;1300;75032;-24
2022/12/02 08:14:58;;;;;;;12.00;6.70;;;;;;;-1.31;70.93;100019.14;102346;1299;76733;-24
2022/12/02 08:17:26;;;;;;;14.00;8.70;;;;;;;-1.35;71.29;100018.04;102293;1298;74167;-24
2022/12/02 08:19:53;;;;;;;18.60;9.00;;;;;;;-1.45;71.01;100019.20;102308;1298;61151;-24
2022/12/02 08:22:21;;;;;;;15.20;7.90;;;;;;;-1.44;71.14;100019.52;102255;1300;61896;-24
2022/12/02 08:24:48;;;;;;;20.70;8.80;;;;;;;-1.46;71.57;100015.98;102300;1291;75506;-24
2022/12/02 08:27:17;;;;;;;13.60;7.30;;;;;;;-1.41;71.44;100013.52;102116;1290;74803;-24
2022/12/02 08:29:44;;;;;;;11.10;7.00;;;;;;;-1.40;71.33;100011.63;102301;1297;75343;-24
2022/12/02 08:32:12;;;;;;;10.70;6.00;;;;;;;-1.26;71.60;100010.70;102275;1298;63675;-24
2022/12/02 08:34:39;;;;;;;15.40;6.10;;;;;;;-0.46;70.44;100002.54;102218;1297;62866;-24
2022/12/02 08:37:07;;;;;;;10.00;5.40;;;;;;;0.06;68.13;100001.78;102304;1298;75074;-24
2022/12/02 08:39:34;;;;;;;19.30;10.60;;;;;;;-0.08;66.56;99999.36;102311;1301;75095;-24
2022/12/02 08:42:02;;;;;;;13.50;7.60;;;;;;;-0.76;67.39;100002.30;102340;1297;74848;-25
2022/12/02 08:44:30;;;;;;;9.90;6.00;;;;;;;-0.79;68.31;99997.91;102039;1295;61122;-24
2022/12/02 08:46:59;;;;;;;15.30;8.60;;;;;;;-0.92;68.46;99999.86;102240;1292;61491;-24
2022/12/02 08:49:27;;;;;;;18.50;9.60;;;;;;;-1.63;69.93;100000.42;102342;1292;76088;-24
2022/12/02 08:51:54;;;;;;;13.80;6.70;;;;;;;-1.38;70.86;100000.86;102264;1298;76876;-24
2022/12/02 08:54:22;;;;;;;9.00;5.00;;;;;;;-1.22;70.15;99997.52;102225;1299;75355;-24
2022/12/02 08:56:50;;;;;;;14.80;7.80;;;;;;;-1.19;69.78;99996.45;102148;1295;61460;-24
2022/12/02 08:59:17;;;;;;;14.00;5.30;;;;;;;-1.30;69.57;100000.55;102340;1293;62606;-24
2022/12/02 09:01:45;;;;;;;16.60;10.20;;;;;;;-1.50;69.86;99998.52;102302;1298;75496;-24
2022/12/02 09:04:17;;;;;;;12.20;7.40;;;;;;;-1.75;71.15;99998.39;102259;1298;76812;-24
2022/12/02 09:06:46;;;;;;;21.00;8.50;;;;;;;-1.56;70.97;99997.58;102192;1296;75239;-24
2022/12/02 09:09:13;;;;;;;14.20;6.60;;;;;;;-1.47;71.05;99996.07;102332;1291;61125;-24
2022/12/02 09:11:41;;;;;;;10.70;6.10;;;;;;;-1.58;70.84;99995.23;102293;1294;61848;-24
2022/12/02 09:14:08;;;;;;;13.20;6.40;;;;;;;-1.13;71.40;99994.95;102208;1298;75404;-24
2022/12/02 09:16:38;;;;;;;14.80;8.10;;;;;;;-0.23;68.31;99990.98;102245;1298;76635;-24
2022/12/02 09:19:06;;;;;;;13.60;7.90;;;;;;;-0.10;66.15;99989.85;102319;1298;74861;-24
2022/12/02 09:21:34;;;;;;;29.50;14.30;;;;;;;-0.32;66.50;99988.78;102270;1297;61092;-25
2022/12/02 09:24:03;;;;;;;14.70;8.10;;;;;;;-1.21;68.44;99990.85;102279;1298;61561;-24
2022/12/02 09:26:30;;;;;;;25.10;13.20;;;;;;;-1.23;69.96;99991.05;102103;1302;76251;-24
2022/12/02 09:28:58;;;;;;;42.10;23.90;;;;;;;-1.32;70.47;99988.32;102304;1291;75751;-24
2022/12/02 09:31:27;;;;;;;24.20;13.40;;;;;;;-1.35;70.96;99987.86;102331;1291;75078;-24
2022/12/02 09:33:55;;;;;;;19.00;9.90;;;;;;;-1.31;70.46;99986.60;102219;1301;61166;-24
2022/12/02 09:36:23;;;;;;;14.90;8.70;;;;;;;-1.57;70.58;99993.33;102290;1292;61154;-24
2022/12/02 09:38:50;;;;;;;23.40;13.20;;;;;;;-1.87;71.57;99990.58;102335;1299;76438;-24
2022/12/02 09:41:18;;;;;;;28.00;13.00;;;;;;;-1.70;72.08;99991.00;102117;1301;75480;-24
2022/12/02 09:43:46;;;;;;;16.80;10.00;;;;;;;-1.46;71.55;99989.92;102264;1291;75365;-24
2022/12/02 09:46:13;;;;;;;16.10;8.00;;;;;;;-1.36;70.60;99992.30;102247;1298;61907;-24
2022/12/02 09:48:48;;;;;;;18.10;8.40;;;;;;;-1.48;70.32;99989.44;102245;1291;61693;-25
2022/12/02 09:51:16;;;;;;;16.80;8.60;;;;;;;-1.42;70.99;99994.11;102286;1295;76054;-26
2022/12/02 09:53:45;;;;;;;12.20;6.40;;;;;;;-1.40;70.21;99987.27;102072;1291;75776;-26
2022/12/02 09:56:18;;;;;;;13.40;6.00;;;;;;;-1.35;70.21;99990.26;102333;1299;75206;-27
2022/12/02 09:58:47;;;;;;;16.40;8.20;;;;;;;-0.51;68.37;99988.66;102165;1298;61152;-26
2022/12/02 10:01:15;;;;;;;14.00;8.70;;;;;;;0.03;66.48;99992.09;102045;1304;63031;-25
2022/12/02 10:03:43;;;;;;;7.60;5.10;;;;;;;0.23;66.21;99990.97;102353;1294;76407;-24
2022/12/02 10:06:25;;;;;;;16.30;8.90;;;;;;;0.08;65.47;99987.38;102064;1294;75589;-25
2022/12/02 10:08:54;;;;;;;12.60;7.30;;;;;;;-0.05;66.17;99988.39;102208;1296;74209;-23
2022/12/02 10:11:33;;;;;;;25.00;14.40;;;;;;;-0.42;66.11;99987.63;102113;1298;62436;-23
2022/12/02 10:14:02;;;;;;;19.30;11.70;;;;;;;-0.87;67.19;99986.14;102136;1298;61817;-25
2022/12/02 10:16:30;;;;;;;13.60;7.90;;;;;;;-0.90;68.15;99988.08;102173;1301;75563;-23
2022/12/02 10:19:00;;;;;;;19.80;9.90;;;;;;;-0.81;67.66;99983.80;102276;1298;76775;-22
2022/12/02 10:21:28;;;;;;;11.80;6.10;;;;;;;-0.80;67.32;99980.20;102088;1302;75043;-23
2022/12/02 10:24:06;;;;;;;11.50;6.90;;;;;;;-0.79;67.40;99981.20;102231;1301;61232;-23
2022/12/02 10:26:50;;;;;;;15.70;8.10;;;;;;;-0.88;67.63;99979.52;102111;1302;62730;-24
2022/12/02 10:29:27;;;;;;;17.30;9.60;;;;;;;-0.90;68.35;99979.38;102075;1304;76129;-25
2022/12/02 10:32:03;;;;;;;14.10;7.60;;;;;;;-0.99;68.30;99978.70;102250;1301;76735;-25
2022/12/02 10:34:34;;;;;;;13.90;8.10;;;;;;;-1.04;67.36;99976.90;102037;1287;75156;-23
2022/12/02 10:37:17;;;;;;;18.30;9.60;;;;;;;-1.07;68.34;99974.73;101996;1300;62271;-23
2022/12/02 10:39:45;;;;;;;12.80;7.40;;;;;;;-1.11;67.67;99974.83;102097;1303;61802;-23
2022/12/02 10:42:19;;;;;;;14.20;8.20;;;;;;;-1.05;68.49;99970.27;102229;1298;74679;-22
2022/12/02 10:45:18;;;;;;;18.00;9.20;;;;;;;-1.13;68.50;99968.55;102216;1301;76832;-23
2022/12/02 10:47:47;;;;;;;11.60;7.50;;;;;;;-1.05;68.98;99968.25;102183;1294;75197;-23
2022/12/02 10:50:20;;;;;;;14.20;7.10;;;;;;;-0.97;68.25;99965.70;102176;1300;61896;-23
2022/12/02 10:52:56;;;;;;;15.80;8.90;;;;;;;-0.96;68.30;99966.37;102088;1297;62691;-23
2022/12/02 10:55:25;;;;;;;17.80;10.30;;;;;;;-0.90;67.69;99966.08;102089;1298;76368;-24
2022/12/02 10:57:58;;;;;;;17.40;9.60;;;;;;;-0.84;67.61;99965.46;102240;1295;77024;-23
2022/12/02 11:00:25;;;;;;;10.40;5.50;;;;;;;-0.72;68.39;99965.04;102113;1295;73005;-23
2022/12/02 11:02:58;;;;;;;17.30;7.80;;;;;;;-0.10;67.15;99962.87;102369;1298;61911;-24
2022/12/02 11:05:32;;;;;;;14.10;6.80;;;;;;;0.59;64.81;99962.73;102125;1294;62782;-23
2022/12/02 11:08:05;;;;;;;15.30;7.50;;;;;;;0.80;63.37;99965.63;102096;1298;76534;-24
2022/12/02 11:10:39;;;;;;;7.20;4.00;;;;;;;0.64;63.24;99960.58;102230;1294;76397;-24
2022/12/02 11:13:14;;;;;;;12.10;6.80;;;;;;;0.42;63.21;99966.76;102050;1299;74060;-24
2022/12/02 11:15:50;;;;;;;11.90;7.40;;;;;;;-0.19;63.98;99961.70;102315;1298;61103;-24
2022/12/02 11:18:54;;;;;;;12.30;7.20;;;;;;;-0.46;65.88;99957.86;102028;1299;62584;-24
2022/12/02 11:21:28;;;;;;;10.00;5.30;;;;;;;-0.18;66.70;99958.27;102203;1294;76353;-24
2022/12/02 11:24:23;;;;;;;15.70;8.80;;;;;;;-0.18;65.46;99957.06;102338;1298;76678;-24
2022/12/02 11:27:03;;;;;;;14.40;9.20;;;;;;;-0.47;65.99;99952.94;102300;1290;75171;-24
2022/12/02 11:29:42;;;;;;;13.80;6.80;;;;;;;-0.88;67.17;99953.94;102325;1298;61153;-24
2022/12/02 11:32:26;;;;;;;16.80;8.80;;;;;;;-0.79;67.06;99956.64;102269;1301;63280;-24